Aviation Digital Data Service (ADDS)

Output produced by TAFs form (1900 UTC 19 September 2017)
found at http://www.aviationweather.gov/adds/tafs/
 
METAR text: VCBI 191810Z 23010KT 9999 BKN016 28/24 Q1012 NOSIG
Conditions at: VCBI (COLOMBO/KATUNAYA, LK) observed 1810 UTC 19 September 2017
Temperature: 28.0°C (82°F)
Dewpoint: 24.0°C (75°F) [RH = 79%]
Pressure (altimeter): 29.88 inches Hg (1012.0 mb)
Winds: from the SW (230 degrees) at 12 MPH (10 knots; 5.2 m/s)
Visibility: 6 or more miles (10+ km)
Ceiling: 1600 feet AGL
Clouds: broken clouds at 1600 feet AGL
Weather: no significant weather observed at this time

Forecast for: VCBI (COLOMBO/KATUNAYA, LK)
Text: TAF VCBI 191540Z 1918/2024 24010KT 9999 SCT017 TX30/2008Z TN27/2000Z
Forecast period: 1800 UTC 19 September 2017 to 0000 UTC 21 September 2017
Forecast type: FROM: standard forecast or significant change
Winds: from the WSW (240 degrees) at 12 MPH (10 knots; 5.2 m/s)
Visibility: 6 or more miles (10+ km)
Clouds: scattered clouds at 1700 feet AGL
Weather: no significant weather forecast for this period
Text: TEMPO 1922/2003 FEW012 SCT016 FEW020CB
Forecast period: 2200 UTC 19 September 2017 to 0300 UTC 20 September 2017
Forecast type: TEMPORARY: The following changes expected for less than half the time period
Clouds: few clouds at 1200 feet AGL
scattered clouds at 1600 feet AGL
few clouds at 2000 feet AGL
Weather: no significant weather forecast for this period